Taiyo — JD3794 — position and weather

sailwx.info

Track history (hours):
 
Tides and Currents Weather Stations Pressure Air Temp Water Temp Dewpoint Dewpoint Depression Visibility Wind Speed Wind Dir Waves Ship Positions

Taiyo

Last reported at 2018-Apr-21 07:30 UTC. Time now 2018-Apr-21 07:55 UTC.
Position N 34°34' E 135°27'.

Length 58 m; draft 3 m.

Type: Cargo ship. MMSI: 431006179.

Date/timePositionNaut miles runAvg speedWind from/ knotsBaromVisibWave heightAir tempDewpointWater temp
2018-Apr-21 07:30N 34°34' E 135°27'0 0.0
2018-Apr-21 07:00N 34°34' E 135°27'0 0.0
2018-Apr-21 06:30N 34°34' E 135°27'0 0.0
2018-Apr-21 06:00N 34°34' E 135°27'0 0.0
2018-Apr-21 05:30N 34°34' E 135°27'0 0.0
2018-Apr-21 05:00N 34°34' E 135°27'0 0.0
2018-Apr-21 04:30N 34°34' E 135°27'0 0.0
2018-Apr-21 04:00N 34°34' E 135°27'0 0.0
2018-Apr-21 03:30N 34°34' E 135°27'0 0.0
2018-Apr-21 03:00N 34°34' E 135°27'0 0.0
2018-Apr-21 02:30N 34°34' E 135°27'0 0.0
2018-Apr-21 02:00N 34°34' E 135°27'0 0.0
2018-Apr-21 01:30N 34°34' E 135°27'0 0.0
2018-Apr-21 01:00N 34°34' E 135°27'0 0.0
2018-Apr-21 00:30N 34°34' E 135°27'0 0.0
2018-Apr-21 00:00N 34°34' E 135°27'0 0.0
2018-Apr-20 23:30N 34°34' E 135°27'0 0.0
2018-Apr-20 23:00N 34°34' E 135°27'0 0.0
2018-Apr-20 22:30N 34°34' E 135°27'0 0.0
2018-Apr-20 21:58N 34°34' E 135°27'0 0.0
2018-Apr-20 21:30N 34°34' E 135°27'0 0.0
2018-Apr-20 21:00N 34°34' E 135°27'0 0.0
2018-Apr-20 20:29N 34°34' E 135°27'0 0.0
2018-Apr-20 20:00N 34°34' E 135°27'0 0.0
2018-Apr-20 19:30N 34°34' E 135°27'0 0.0
2018-Apr-20 19:00N 34°34' E 135°27'0 0.0
2018-Apr-20 18:30N 34°34' E 135°27'0 0.0
2018-Apr-20 18:00N 34°34' E 135°27'0 0.0
2018-Apr-20 17:30N 34°34' E 135°27'0 0.0
2018-Apr-20 17:00N 34°34' E 135°27'0 0.0
2018-Apr-20 16:30N 34°34' E 135°27'0 0.0
2018-Apr-20 16:00N 34°34' E 135°27'0 0.0
2018-Apr-20 15:30N 34°34' E 135°27'0 0.0
2018-Apr-20 15:00N 34°34' E 135°27'0 0.0
2018-Apr-20 14:30N 34°34' E 135°27'0 0.0
2018-Apr-20 14:00N 34°34' E 135°27'0 0.0
2018-Apr-20 13:30N 34°34' E 135°27'0 0.0
2018-Apr-20 13:00N 34°34' E 135°27'0 0.0
2018-Apr-20 12:30N 34°34' E 135°27'0 0.0
2018-Apr-20 12:00N 34°34' E 135°27'0 0.0
2018-Apr-20 11:30N 34°34' E 135°27'0 0.0
2018-Apr-20 11:00N 34°34' E 135°27'0 0.0
2018-Apr-20 10:30N 34°34' E 135°27'0 0.0
2018-Apr-20 10:00N 34°34' E 135°27'0 0.0
2018-Apr-20 09:30N 34°34' E 135°27'0 0.0
2018-Apr-20 09:00N 34°34' E 135°27'0 0.0
2018-Apr-20 08:30N 34°34' E 135°27'0 0.0
2018-Apr-20 08:00N 34°34' E 135°27'0 0.0
2018-Apr-20 07:30N 34°34' E 135°27'0 0.0
2018-Apr-20 06:59N 34°34' E 135°27'0 0.0
2018-Apr-20 06:30N 34°34' E 135°27'0 0.0
2018-Apr-20 06:00N 34°34' E 135°27'0 0.0
2018-Apr-20 05:30N 34°34' E 135°27'0 0.0
2018-Apr-20 05:00N 34°34' E 135°27'0 0.0
2018-Apr-20 04:30N 34°34' E 135°27'0 0.0
2018-Apr-20 04:00N 34°34' E 135°27'0 0.0
2018-Apr-20 03:30N 34°34' E 135°27'0 0.4
2018-Apr-20 03:00N 34°34' E 135°27'5 9.8
2018-Apr-20 02:30N 34°38' E 135°23'3 5.7
2018-Apr-20 02:00N 34°40' E 135°25'0 0.0
2018-Apr-20 01:30N 34°40' E 135°25'1 2.6
2018-Apr-20 01:00N 34°39' E 135°25'1 1.8
2018-Apr-20 00:30N 34°40' E 135°26'0 0.0
2018-Apr-20 00:00N 34°40' E 135°26'0 0.0
2018-Apr-19 23:30N 34°40' E 135°26'0 0.0
2018-Apr-19 23:00N 34°40' E 135°26'0 0.0
2018-Apr-19 22:30N 34°40' E 135°26'2 4.9
2018-Apr-19 22:00N 34°38' E 135°23'5 9.8
2018-Apr-19 21:30N 34°37' E 135°18'510.6
2018-Apr-19 21:00N 34°36' E 135°11'611.7
2018-Apr-19 20:31N 34°35' E 135°04'612.5
2018-Apr-19 20:00N 34°36' E 134°57'612.7
2018-Apr-19 19:31N 34°34' E 134°50'611.1
2018-Apr-19 19:00N 34°31' E 134°44'511.1
2018-Apr-19 18:30N 34°29' E 134°37'611.2
2018-Apr-19 18:00N 34°27' E 134°31'611.1
2018-Apr-19 17:30N 34°25' E 134°25'611.1
2018-Apr-19 17:01N 34°24' E 134°18'611.0
2018-Apr-19 16:30N 34°25' E 134°12'78 9.1
2018-Apr-19 07:56N 34°12' E 132°38'410.1
2018-Apr-19 07:30N 34°12' E 132°33'2 4.6
2018-Apr-19 07:00N 34°14' E 132°32'0 0.2
2018-Apr-19 06:30N 34°14' E 132°32'0 0.0
2018-Apr-19 06:00N 34°14' E 132°32'0 0.0
2018-Apr-19 05:30N 34°14' E 132°32'0 0.1
2018-Apr-19 05:00N 34°14' E 132°32'0 0.0
2018-Apr-19 04:30N 34°14' E 132°32'0 0.1
2018-Apr-19 03:57N 34°14' E 132°32'0 0.0
2018-Apr-19 03:30N 34°14' E 132°32'0 1.0
2018-Apr-19 03:00N 34°14' E 132°32'0 0.0
2018-Apr-19 02:30N 34°14' E 132°32'3 5.7
2018-Apr-19 02:00N 34°12' E 132°30'6 9.5
2018-Apr-19 01:24N 34°07' E 132°27'1 0.1
2018-Apr-18 00:50N 34°06' E 132°27'410.1
2018-Apr-18 00:29N 34°08' E 132°29'511.1
2018-Apr-18 00:00N 34°13' E 132°32'1 2.3
2018-Apr-17 23:30N 34°14' E 132°32'0 0.0
2018-Apr-17 23:00N 34°14' E 132°32'0 0.8
2018-Apr-17 22:30N 34°14' E 132°33'0 0.5
2018-Apr-17 22:00N 34°14' E 132°33'0 0.0
2018-Apr-17 21:30N 34°14' E 132°33'1 1.0
2018-Apr-17 21:00N 34°14' E 132°33'0 0.0
2018-Apr-17 20:29N 34°14' E 132°33'0 0.0
2018-Apr-17 19:59N 34°14' E 132°33'0 0.0
2018-Apr-17 19:30N 34°14' E 132°33'0 0.0
2018-Apr-17 18:58N 34°14' E 132°33'0 0.0
2018-Apr-17 18:30N 34°14' E 132°33'0 0.0
2018-Apr-17 18:00N 34°14' E 132°33'0 0.0
2018-Apr-17 17:30N 34°14' E 132°33'0 0.0
2018-Apr-17 17:00N 34°14' E 132°33'0 0.1
2018-Apr-17 16:30N 34°14' E 132°33'0 0.1
2018-Apr-17 16:00N 34°14' E 132°33'0 0.1
2018-Apr-17 15:30N 34°14' E 132°33'0 0.0
2018-Apr-17 15:00N 34°14' E 132°33'0 0.1
2018-Apr-17 14:30N 34°14' E 132°33'0 0.0
2018-Apr-17 14:00N 34°14' E 132°33'0 0.0
2018-Apr-17 13:30N 34°14' E 132°33'3 5.6
2018-Apr-17 13:00N 34°11' E 132°33'20 9.9
2018-Apr-17 10:57N 34°18' E 132°56'57 9.9
2018-Apr-17 05:11N 34°31' E 134°03'9 9.9
2018-Apr-17 04:18N 34°35' E 134°13'310.4
2018-Apr-17 03:59N 34°36' E 134°16'610.8
2018-Apr-17 03:27N 34°39' E 134°23'511.3
2018-Apr-17 03:00N 34°41' E 134°29'611.3
2018-Apr-17 02:30N 34°42' E 134°35'611.2
2018-Apr-17 02:00N 34°43' E 134°42'4 8.8
2018-Apr-17 01:30N 34°45' E 134°46'0 0.0
2018-Apr-17 00:20N 34°45' E 134°46'0 0.0
2018-Apr-17 00:00N 34°45' E 134°46'1 2.4
2018-Apr-16 23:30N 34°44' E 134°46'4 7.7
2018-Apr-16 23:00N 34°42' E 134°50'1 2.1
2018-Apr-16 22:30N 34°43' E 134°51'0 0.0
2018-Apr-16 22:00N 34°43' E 134°51'0 0.0
2018-Apr-16 21:30N 34°43' E 134°51'0 0.0
2018-Apr-16 20:59N 34°43' E 134°51'0 0.0
2018-Apr-16 20:30N 34°43' E 134°51'0 0.0
2018-Apr-16 20:00N 34°43' E 134°51'0 0.0
2018-Apr-16 19:30N 34°43' E 134°51'0 0.0
2018-Apr-16 19:00N 34°43' E 134°51'0 0.0
2018-Apr-16 18:30N 34°43' E 134°51'0 0.0
2018-Apr-16 17:59N 34°43' E 134°51'0 0.0
2018-Apr-16 17:30N 34°43' E 134°51'0 0.0
2018-Apr-16 17:00N 34°43' E 134°51'0 0.0
2018-Apr-16 16:30N 34°43' E 134°51'0 0.0
2018-Apr-16 16:00N 34°43' E 134°51'0 0.0
2018-Apr-16 15:28N 34°43' E 134°51'0 0.0
2018-Apr-16 15:00N 34°43' E 134°51'0 0.0
2018-Apr-16 14:30N 34°43' E 134°51'0 0.0
2018-Apr-16 14:00N 34°43' E 134°51'0 0.0
2018-Apr-16 13:29N 34°43' E 134°51'0 0.0
2018-Apr-16 13:00N 34°43' E 134°51'0 0.0
2018-Apr-16 12:30N 34°43' E 134°51'0 0.0
2018-Apr-16 12:00N 34°43' E 134°51'0 0.0
2018-Apr-16 11:30N 34°43' E 134°51'0 0.0
2018-Apr-16 11:00N 34°43' E 134°51'0 0.0
2018-Apr-16 10:30N 34°43' E 134°51'0 0.0
2018-Apr-16 10:00N 34°43' E 134°51'0 0.0
2018-Apr-16 09:30N 34°43' E 134°51'0 0.0
2018-Apr-16 08:59N 34°43' E 134°51'0 0.0
2018-Apr-16 08:30N 34°43' E 134°51'0 0.0
2018-Apr-16 08:00N 34°43' E 134°51'0 0.0
2018-Apr-16 07:30N 34°43' E 134°51'0 0.0
2018-Apr-16 07:00N 34°43' E 134°51'0 0.0
2018-Apr-16 06:30N 34°43' E 134°51'0 0.6
2018-Apr-16 06:00N 34°43' E 134°51'4 8.1
2018-Apr-16 05:30N 34°39' E 134°52'4 8.9
2018-Apr-16 05:00N 34°38' E 134°57'4 7.9
2018-Apr-16 04:30N 34°37' E 135°02'4 8.2
2018-Apr-16 04:00N 34°36' E 135°07'611.1
2018-Apr-16 03:30N 34°37' E 135°13'611.5
2018-Apr-16 03:00N 34°38' E 135°20'5 9.5
2018-Apr-16 02:30N 34°40' E 135°26'0 0.1
2018-Apr-16 02:00N 34°40' E 135°26'0 0.0
2018-Apr-16 01:30N 34°40' E 135°26'0 0.4
2018-Apr-16 01:00N 34°39' E 135°26'1 1.6
2018-Apr-16 00:30N 34°40' E 135°27'0 0.0
2018-Apr-16 00:00N 34°40' E 135°27'0 0.1
2018-Apr-15 23:30N 34°40' E 135°26'0 0.1
2018-Apr-15 23:00N 34°40' E 135°27'0 0.0
2018-Apr-15 22:30N 34°40' E 135°27'0 0.0
2018-Apr-15 22:00N 34°40' E 135°27'0 0.0
2018-Apr-15 21:30N 34°40' E 135°27'0 0.0
2018-Apr-15 21:00N 34°40' E 135°27'0 0.0
2018-Apr-15 20:30N 34°40' E 135°27'0 0.0
2018-Apr-15 20:00N 34°40' E 135°27'0 0.0
2018-Apr-15 19:30N 34°40' E 135°27'0 0.0
2018-Apr-15 19:00N 34°40' E 135°27'0 0.2
2018-Apr-15 18:30N 34°40' E 135°26'5 9.1
2018-Apr-15 18:00N 34°39' E 135°21'5 9.9
2018-Apr-15 17:30N 34°37' E 135°15'510.3
2018-Apr-15 17:00N 34°35' E 135°09'611.6
2018-Apr-15 16:30N 34°36' E 135°02'612.0
2018-Apr-15 16:00N 34°35' E 134°55'611.8
2018-Apr-15 15:30N 34°33' E 134°49'510.5
2018-Apr-15 15:00N 34°31' E 134°43'510.5
2018-Apr-15 14:30N 34°29' E 134°37'510.5
2018-Apr-15 14:00N 34°27' E 134°31'510.3
2018-Apr-15 13:30N 34°25' E 134°25'510.2
2018-Apr-15 13:00N 34°24' E 134°19'610.1
2018-Apr-15 12:26N 34°24' E 134°12'3 0.1
2018-Apr-13 10:45N 34°25' E 134°16'312.2
2018-Apr-13 10:30N 34°25' E 134°19'611.7
2018-Apr-13 10:01N 34°27' E 134°26'611.7
2018-Apr-13 09:30N 34°29' E 134°33'611.6
2018-Apr-13 09:00N 34°31' E 134°39'611.8
2018-Apr-13 08:30N 34°33' E 134°46'612.2
2018-Apr-13 08:00N 34°35' E 134°53'611.9
2018-Apr-13 07:31N 34°38' E 134°59'510.9
2018-Apr-13 07:00N 34°36' E 135°06'612.0
2018-Apr-13 06:31N 34°37' E 135°13'611.6
2018-Apr-13 06:00N 34°39' E 135°20'4 9.0
2018-Apr-13 05:30N 34°42' E 135°24'0 0.8
2018-Apr-13 05:01N 34°42' E 135°24'0 0.0
2018-Apr-13 04:31N 34°42' E 135°24'0 0.0
2018-Apr-13 04:01N 34°42' E 135°24'0 0.0
2018-Apr-13 03:30N 34°42' E 135°24'0 0.7
2018-Apr-13 03:01N 34°42' E 135°24'0 0.9
2018-Apr-13 02:30N 34°42' E 135°24'4 7.0
2018-Apr-13 02:01N 34°38' E 135°23'2 3.4
2018-Apr-13 01:30N 34°38' E 135°25'0 0.0
2018-Apr-13 01:01N 34°38' E 135°25'0 0.0
2018-Apr-13 00:31N 34°38' E 135°25'0 0.0
2018-Apr-13 00:01N 34°38' E 135°25'0 0.0
2018-Apr-12 23:31N 34°38' E 135°25'0 0.0
2018-Apr-12 23:01N 34°38' E 135°25'1 1.1
2018-Apr-12 22:31N 34°38' E 135°24'0 0.0
2018-Apr-12 22:00N 34°38' E 135°24'0 0.0
2018-Apr-12 21:30N 34°38' E 135°24'0 0.0
2018-Apr-12 21:01N 34°38' E 135°24'0 0.0
2018-Apr-12 20:30N 34°38' E 135°24'0 0.0
2018-Apr-12 20:01N 34°38' E 135°24'0 0.0
2018-Apr-12 19:30N 34°38' E 135°24'3 5.1
2018-Apr-12 19:00N 34°37' E 135°21'5 9.5
2018-Apr-12 18:30N 34°36' E 135°15'510.5
2018-Apr-12 18:00N 34°35' E 135°09'511.0
2018-Apr-12 17:30N 34°36' E 135°02'611.4
2018-Apr-12 17:00N 34°36' E 134°56'612.2
2018-Apr-12 16:30N 34°33' E 134°49'510.9
2018-Apr-12 16:00N 34°31' E 134°43'510.8
2018-Apr-12 15:30N 34°29' E 134°37'510.8
2018-Apr-12 15:00N 34°27' E 134°30'611.1
2018-Apr-12 14:30N 34°25' E 134°24'611.2
2018-Apr-12 14:00N 34°24' E 134°18'611.6
2018-Apr-12 13:29N 34°25' E 134°10'7611.0
2018-Apr-12 06:36N 34°06' E 132°42'111.0
2018-Apr-12 06:30N 34°06' E 132°40'510.8
2018-Apr-12 06:00N 34°04' E 132°34'14 5.2
2018-Apr-12 03:13N 33°60' E 132°18'410.5
2018-Apr-12 02:53N 33°59' E 132°14'4 8.7
2018-Apr-12 02:25N 33°56' E 132°10'6 9.7
2018-Apr-12 01:48N 33°50' E 132°09'510.0
2018-Apr-12 01:16N 33°46' E 132°04'1110.2
2018-Apr-12 00:14N 33°53' E 131°54'510.7
2018-Apr-11 23:44N 33°56' E 131°48'311.1
2018-Apr-11 23:27N 33°58' E 131°46'4 9.6
2018-Apr-11 23:00N 34°02' E 131°47'1 0.1
2018-Apr-11 11:15N 34°03' E 131°47'2 7.5
2018-Apr-11 11:00N 34°02' E 131°45'510.7
2018-Apr-11 10:30N 34°00' E 131°39'611.3
2018-Apr-11 10:00N 33°57' E 131°33'611.3
2018-Apr-11 09:30N 33°55' E 131°27'611.2
2018-Apr-11 09:00N 33°53' E 131°20'510.7
2018-Apr-11 08:30N 33°53' E 131°14'611.1
2018-Apr-11 08:00N 33°55' E 131°08'  
Track history (hours):
 
Tides and Currents Weather Stations Pressure Air Temp Water Temp Dewpoint Dewpoint Depression Visibility Wind Speed Wind Dir Waves Ship Positions

Taiyo

Last reported at 2018-Apr-21 07:30 UTC. Time now 2018-Apr-21 07:55 UTC.
Position N 34°34' E 135°27'.

Length 58 m; draft 3 m.

Type: Cargo ship. MMSI: 431006179.

Date/timePositionNaut miles runAvg speedWind from/ knotsBaromVisibWave heightAir tempDewpointWater temp
2018-Apr-21 07:30N 34°34' E 135°27'0 0.0
2018-Apr-21 07:00N 34°34' E 135°27'0 0.0
2018-Apr-21 06:30N 34°34' E 135°27'0 0.0
2018-Apr-21 06:00N 34°34' E 135°27'0 0.0
2018-Apr-21 05:30N 34°34' E 135°27'0 0.0
2018-Apr-21 05:00N 34°34' E 135°27'0 0.0
2018-Apr-21 04:30N 34°34' E 135°27'0 0.0
2018-Apr-21 04:00N 34°34' E 135°27'0 0.0
2018-Apr-21 03:30N 34°34' E 135°27'0 0.0
2018-Apr-21 03:00N 34°34' E 135°27'0 0.0
2018-Apr-21 02:30N 34°34' E 135°27'0 0.0
2018-Apr-21 02:00N 34°34' E 135°27'0 0.0
2018-Apr-21 01:30N 34°34' E 135°27'0 0.0
2018-Apr-21 01:00N 34°34' E 135°27'0 0.0
2018-Apr-21 00:30N 34°34' E 135°27'0 0.0
2018-Apr-21 00:00N 34°34' E 135°27'0 0.0
2018-Apr-20 23:30N 34°34' E 135°27'0 0.0
2018-Apr-20 23:00N 34°34' E 135°27'0 0.0
2018-Apr-20 22:30N 34°34' E 135°27'0 0.0
2018-Apr-20 21:58N 34°34' E 135°27'0 0.0
2018-Apr-20 21:30N 34°34' E 135°27'0 0.0
2018-Apr-20 21:00N 34°34' E 135°27'0 0.0
2018-Apr-20 20:29N 34°34' E 135°27'0 0.0
2018-Apr-20 20:00N 34°34' E 135°27'0 0.0
2018-Apr-20 19:30N 34°34' E 135°27'0 0.0
2018-Apr-20 19:00N 34°34' E 135°27'0 0.0
2018-Apr-20 18:30N 34°34' E 135°27'0 0.0
2018-Apr-20 18:00N 34°34' E 135°27'0 0.0
2018-Apr-20 17:30N 34°34' E 135°27'0 0.0
2018-Apr-20 17:00N 34°34' E 135°27'0 0.0
2018-Apr-20 16:30N 34°34' E 135°27'0 0.0
2018-Apr-20 16:00N 34°34' E 135°27'0 0.0
2018-Apr-20 15:30N 34°34' E 135°27'0 0.0
2018-Apr-20 15:00N 34°34' E 135°27'0 0.0
2018-Apr-20 14:30N 34°34' E 135°27'0 0.0
2018-Apr-20 14:00N 34°34' E 135°27'0 0.0
2018-Apr-20 13:30N 34°34' E 135°27'0 0.0
2018-Apr-20 13:00N 34°34' E 135°27'0 0.0
2018-Apr-20 12:30N 34°34' E 135°27'0 0.0
2018-Apr-20 12:00N 34°34' E 135°27'0 0.0
2018-Apr-20 11:30N 34°34' E 135°27'0 0.0
2018-Apr-20 11:00N 34°34' E 135°27'0 0.0
2018-Apr-20 10:30N 34°34' E 135°27'0 0.0
2018-Apr-20 10:00N 34°34' E 135°27'0 0.0
2018-Apr-20 09:30N 34°34' E 135°27'0 0.0
2018-Apr-20 09:00N 34°34' E 135°27'0 0.0
2018-Apr-20 08:30N 34°34' E 135°27'0 0.0
2018-Apr-20 08:00N 34°34' E 135°27'0 0.0
2018-Apr-20 07:30N 34°34' E 135°27'0 0.0
2018-Apr-20 06:59N 34°34' E 135°27'0 0.0
2018-Apr-20 06:30N 34°34' E 135°27'0 0.0
2018-Apr-20 06:00N 34°34' E 135°27'0 0.0
2018-Apr-20 05:30N 34°34' E 135°27'0 0.0
2018-Apr-20 05:00N 34°34' E 135°27'0 0.0
2018-Apr-20 04:30N 34°34' E 135°27'0 0.0
2018-Apr-20 04:00N 34°34' E 135°27'0 0.0
2018-Apr-20 03:30N 34°34' E 135°27'0 0.4
2018-Apr-20 03:00N 34°34' E 135°27'5 9.8
2018-Apr-20 02:30N 34°38' E 135°23'3 5.7
2018-Apr-20 02:00N 34°40' E 135°25'0 0.0
2018-Apr-20 01:30N 34°40' E 135°25'1 2.6
2018-Apr-20 01:00N 34°39' E 135°25'1 1.8
2018-Apr-20 00:30N 34°40' E 135°26'0 0.0
2018-Apr-20 00:00N 34°40' E 135°26'0 0.0
2018-Apr-19 23:30N 34°40' E 135°26'0 0.0
2018-Apr-19 23:00N 34°40' E 135°26'0 0.0
2018-Apr-19 22:30N 34°40' E 135°26'2 4.9
2018-Apr-19 22:00N 34°38' E 135°23'5 9.8
2018-Apr-19 21:30N 34°37' E 135°18'510.6
2018-Apr-19 21:00N 34°36' E 135°11'611.7
2018-Apr-19 20:31N 34°35' E 135°04'612.5
2018-Apr-19 20:00N 34°36' E 134°57'612.7
2018-Apr-19 19:31N 34°34' E 134°50'611.1
2018-Apr-19 19:00N 34°31' E 134°44'511.1
2018-Apr-19 18:30N 34°29' E 134°37'611.2
2018-Apr-19 18:00N 34°27' E 134°31'611.1
2018-Apr-19 17:30N 34°25' E 134°25'611.1
2018-Apr-19 17:01N 34°24' E 134°18'611.0
2018-Apr-19 16:30N 34°25' E 134°12'78 9.1
2018-Apr-19 07:56N 34°12' E 132°38'410.1
2018-Apr-19 07:30N 34°12' E 132°33'2 4.6
2018-Apr-19 07:00N 34°14' E 132°32'0 0.2
2018-Apr-19 06:30N 34°14' E 132°32'0 0.0
2018-Apr-19 06:00N 34°14' E 132°32'0 0.0
2018-Apr-19 05:30N 34°14' E 132°32'0 0.1
2018-Apr-19 05:00N 34°14' E 132°32'0 0.0
2018-Apr-19 04:30N 34°14' E 132°32'0 0.1
2018-Apr-19 03:57N 34°14' E 132°32'0 0.0
2018-Apr-19 03:30N 34°14' E 132°32'0 1.0
2018-Apr-19 03:00N 34°14' E 132°32'0 0.0
2018-Apr-19 02:30N 34°14' E 132°32'3 5.7
2018-Apr-19 02:00N 34°12' E 132°30'6 9.5
2018-Apr-19 01:24N 34°07' E 132°27'1 0.1
2018-Apr-18 00:50N 34°06' E 132°27'410.1
2018-Apr-18 00:29N 34°08' E 132°29'511.1
2018-Apr-18 00:00N 34°13' E 132°32'1 2.3
2018-Apr-17 23:30N 34°14' E 132°32'0 0.0
2018-Apr-17 23:00N 34°14' E 132°32'0 0.8
2018-Apr-17 22:30N 34°14' E 132°33'0 0.5
2018-Apr-17 22:00N 34°14' E 132°33'0 0.0
2018-Apr-17 21:30N 34°14' E 132°33'1 1.0
2018-Apr-17 21:00N 34°14' E 132°33'0 0.0
2018-Apr-17 20:29N 34°14' E 132°33'0 0.0
2018-Apr-17 19:59N 34°14' E 132°33'0 0.0
2018-Apr-17 19:30N 34°14' E 132°33'0 0.0
2018-Apr-17 18:58N 34°14' E 132°33'0 0.0
2018-Apr-17 18:30N 34°14' E 132°33'0 0.0
2018-Apr-17 18:00N 34°14' E 132°33'0 0.0
2018-Apr-17 17:30N 34°14' E 132°33'0 0.0
2018-Apr-17 17:00N 34°14' E 132°33'0 0.1
2018-Apr-17 16:30N 34°14' E 132°33'0 0.1
2018-Apr-17 16:00N 34°14' E 132°33'0 0.1
2018-Apr-17 15:30N 34°14' E 132°33'0 0.0
2018-Apr-17 15:00N 34°14' E 132°33'0 0.1
2018-Apr-17 14:30N 34°14' E 132°33'0 0.0
2018-Apr-17 14:00N 34°14' E 132°33'0 0.0
2018-Apr-17 13:30N 34°14' E 132°33'3 5.6
2018-Apr-17 13:00N 34°11' E 132°33'20 9.9
2018-Apr-17 10:57N 34°18' E 132°56'57 9.9
2018-Apr-17 05:11N 34°31' E 134°03'9 9.9
2018-Apr-17 04:18N 34°35' E 134°13'310.4
2018-Apr-17 03:59N 34°36' E 134°16'610.8
2018-Apr-17 03:27N 34°39' E 134°23'511.3
2018-Apr-17 03:00N 34°41' E 134°29'611.3
2018-Apr-17 02:30N 34°42' E 134°35'611.2
2018-Apr-17 02:00N 34°43' E 134°42'4 8.8
2018-Apr-17 01:30N 34°45' E 134°46'0 0.0
2018-Apr-17 00:20N 34°45' E 134°46'0 0.0
2018-Apr-17 00:00N 34°45' E 134°46'1 2.4
2018-Apr-16 23:30N 34°44' E 134°46'4 7.7
2018-Apr-16 23:00N 34°42' E 134°50'1 2.1
2018-Apr-16 22:30N 34°43' E 134°51'0 0.0
2018-Apr-16 22:00N 34°43' E 134°51'0 0.0
2018-Apr-16 21:30N 34°43' E 134°51'0 0.0
2018-Apr-16 20:59N 34°43' E 134°51'0 0.0
2018-Apr-16 20:30N 34°43' E 134°51'0 0.0
2018-Apr-16 20:00N 34°43' E 134°51'0 0.0
2018-Apr-16 19:30N 34°43' E 134°51'0 0.0
2018-Apr-16 19:00N 34°43' E 134°51'0 0.0
2018-Apr-16 18:30N 34°43' E 134°51'0 0.0
2018-Apr-16 17:59N 34°43' E 134°51'0 0.0
2018-Apr-16 17:30N 34°43' E 134°51'0 0.0
2018-Apr-16 17:00N 34°43' E 134°51'0 0.0
2018-Apr-16 16:30N 34°43' E 134°51'0 0.0
2018-Apr-16 16:00N 34°43' E 134°51'0 0.0
2018-Apr-16 15:28N 34°43' E 134°51'0 0.0
2018-Apr-16 15:00N 34°43' E 134°51'0 0.0
2018-Apr-16 14:30N 34°43' E 134°51'0 0.0
2018-Apr-16 14:00N 34°43' E 134°51'0 0.0
2018-Apr-16 13:29N 34°43' E 134°51'0 0.0
2018-Apr-16 13:00N 34°43' E 134°51'0 0.0
2018-Apr-16 12:30N 34°43' E 134°51'0 0.0
2018-Apr-16 12:00N 34°43' E 134°51'0 0.0
2018-Apr-16 11:30N 34°43' E 134°51'0 0.0
2018-Apr-16 11:00N 34°43' E 134°51'0 0.0
2018-Apr-16 10:30N 34°43' E 134°51'0 0.0
2018-Apr-16 10:00N 34°43' E 134°51'0 0.0
2018-Apr-16 09:30N 34°43' E 134°51'0 0.0
2018-Apr-16 08:59N 34°43' E 134°51'0 0.0
2018-Apr-16 08:30N 34°43' E 134°51'0 0.0
2018-Apr-16 08:00N 34°43' E 134°51'0 0.0
2018-Apr-16 07:30N 34°43' E 134°51'0 0.0
2018-Apr-16 07:00N 34°43' E 134°51'0 0.0
2018-Apr-16 06:30N 34°43' E 134°51'0 0.6
2018-Apr-16 06:00N 34°43' E 134°51'4 8.1
2018-Apr-16 05:30N 34°39' E 134°52'4 8.9
2018-Apr-16 05:00N 34°38' E 134°57'4 7.9
2018-Apr-16 04:30N 34°37' E 135°02'4 8.2
2018-Apr-16 04:00N 34°36' E 135°07'611.1
2018-Apr-16 03:30N 34°37' E 135°13'611.5
2018-Apr-16 03:00N 34°38' E 135°20'5 9.5
2018-Apr-16 02:30N 34°40' E 135°26'0 0.1
2018-Apr-16 02:00N 34°40' E 135°26'0 0.0
2018-Apr-16 01:30N 34°40' E 135°26'0 0.4
2018-Apr-16 01:00N 34°39' E 135°26'1 1.6
2018-Apr-16 00:30N 34°40' E 135°27'0 0.0
2018-Apr-16 00:00N 34°40' E 135°27'0 0.1
2018-Apr-15 23:30N 34°40' E 135°26'0 0.1
2018-Apr-15 23:00N 34°40' E 135°27'0 0.0
2018-Apr-15 22:30N 34°40' E 135°27'0 0.0
2018-Apr-15 22:00N 34°40' E 135°27'0 0.0
2018-Apr-15 21:30N 34°40' E 135°27'0 0.0
2018-Apr-15 21:00N 34°40' E 135°27'0 0.0
2018-Apr-15 20:30N 34°40' E 135°27'0 0.0
2018-Apr-15 20:00N 34°40' E 135°27'0 0.0
2018-Apr-15 19:30N 34°40' E 135°27'0 0.0
2018-Apr-15 19:00N 34°40' E 135°27'0 0.2
2018-Apr-15 18:30N 34°40' E 135°26'5 9.1
2018-Apr-15 18:00N 34°39' E 135°21'5 9.9
2018-Apr-15 17:30N 34°37' E 135°15'510.3
2018-Apr-15 17:00N 34°35' E 135°09'611.6
2018-Apr-15 16:30N 34°36' E 135°02'612.0
2018-Apr-15 16:00N 34°35' E 134°55'611.8
2018-Apr-15 15:30N 34°33' E 134°49'510.5
2018-Apr-15 15:00N 34°31' E 134°43'510.5
2018-Apr-15 14:30N 34°29' E 134°37'510.5
2018-Apr-15 14:00N 34°27' E 134°31'510.3
2018-Apr-15 13:30N 34°25' E 134°25'510.2
2018-Apr-15 13:00N 34°24' E 134°19'610.1
2018-Apr-15 12:26N 34°24' E 134°12'3 0.1
2018-Apr-13 10:45N 34°25' E 134°16'312.2
2018-Apr-13 10:30N 34°25' E 134°19'611.7
2018-Apr-13 10:01N 34°27' E 134°26'611.7
2018-Apr-13 09:30N 34°29' E 134°33'611.6
2018-Apr-13 09:00N 34°31' E 134°39'611.8
2018-Apr-13 08:30N 34°33' E 134°46'612.2
2018-Apr-13 08:00N 34°35' E 134°53'611.9
2018-Apr-13 07:31N 34°38' E 134°59'510.9
2018-Apr-13 07:00N 34°36' E 135°06'612.0
2018-Apr-13 06:31N 34°37' E 135°13'611.6
2018-Apr-13 06:00N 34°39' E 135°20'4 9.0
2018-Apr-13 05:30N 34°42' E 135°24'0 0.8
2018-Apr-13 05:01N 34°42' E 135°24'0 0.0
2018-Apr-13 04:31N 34°42' E 135°24'0 0.0
2018-Apr-13 04:01N 34°42' E 135°24'0 0.0
2018-Apr-13 03:30N 34°42' E 135°24'0 0.7
2018-Apr-13 03:01N 34°42' E 135°24'0 0.9
2018-Apr-13 02:30N 34°42' E 135°24'4 7.0
2018-Apr-13 02:01N 34°38' E 135°23'2 3.4
2018-Apr-13 01:30N 34°38' E 135°25'0 0.0
2018-Apr-13 01:01N 34°38' E 135°25'0 0.0
2018-Apr-13 00:31N 34°38' E 135°25'0 0.0
2018-Apr-13 00:01N 34°38' E 135°25'0 0.0
2018-Apr-12 23:31N 34°38' E 135°25'0 0.0
2018-Apr-12 23:01N 34°38' E 135°25'1 1.1
2018-Apr-12 22:31N 34°38' E 135°24'0 0.0
2018-Apr-12 22:00N 34°38' E 135°24'0 0.0
2018-Apr-12 21:30N 34°38' E 135°24'0 0.0
2018-Apr-12 21:01N 34°38' E 135°24'0 0.0
2018-Apr-12 20:30N 34°38' E 135°24'0 0.0
2018-Apr-12 20:01N 34°38' E 135°24'0 0.0
2018-Apr-12 19:30N 34°38' E 135°24'3 5.1
2018-Apr-12 19:00N 34°37' E 135°21'5 9.5
2018-Apr-12 18:30N 34°36' E 135°15'510.5
2018-Apr-12 18:00N 34°35' E 135°09'511.0
2018-Apr-12 17:30N 34°36' E 135°02'611.4
2018-Apr-12 17:00N 34°36' E 134°56'612.2
2018-Apr-12 16:30N 34°33' E 134°49'510.9
2018-Apr-12 16:00N 34°31' E 134°43'510.8
2018-Apr-12 15:30N 34°29' E 134°37'510.8
2018-Apr-12 15:00N 34°27' E 134°30'611.1
2018-Apr-12 14:30N 34°25' E 134°24'611.2
2018-Apr-12 14:00N 34°24' E 134°18'611.6
2018-Apr-12 13:29N 34°25' E 134°10'7611.0
2018-Apr-12 06:36N 34°06' E 132°42'111.0
2018-Apr-12 06:30N 34°06' E 132°40'510.8
2018-Apr-12 06:00N 34°04' E 132°34'14 5.2
2018-Apr-12 03:13N 33°60' E 132°18'410.5
2018-Apr-12 02:53N 33°59' E 132°14'4 8.7
2018-Apr-12 02:25N 33°56' E 132°10'6 9.7
2018-Apr-12 01:48N 33°50' E 132°09'510.0
2018-Apr-12 01:16N 33°46' E 132°04'1110.2
2018-Apr-12 00:14N 33°53' E 131°54'510.7
2018-Apr-11 23:44N 33°56' E 131°48'311.1
2018-Apr-11 23:27N 33°58' E 131°46'4 9.6
2018-Apr-11 23:00N 34°02' E 131°47'1 0.1
2018-Apr-11 11:15N 34°03' E 131°47'2 7.5
2018-Apr-11 11:00N 34°02' E 131°45'510.7
2018-Apr-11 10:30N 34°00' E 131°39'611.3
2018-Apr-11 10:00N 33°57' E 131°33'611.3
2018-Apr-11 09:30N 33°55' E 131°27'611.2
2018-Apr-11 09:00N 33°53' E 131°20'510.7
2018-Apr-11 08:30N 33°53' E 131°14'611.1
2018-Apr-11 08:00N 33°55' E 131°08'  

Dump ship's entire track history